Terminal Aerodrome Forecast
Issued by NWS

Home | Current Version | Previous Version | Text Only | Print | Product List | Glossary On
Versions: 1 2 3 4 5 6 7 8 9 10 11 12 13 14 15 16 17 18 19 20 21 22 23 24
000
FTUS43 KDVN 230100 AAA
TAFBRL
TAF AMD
KBRL 230159Z 2302/2324 33004KT P6SM OVC020
     FM231000 22005KT P6SM SCT020
     FM231600 22012KT P6SM SCT200=

USA.gov is the U.S. government's official web portal to all federal, state and local government web resources and services.